createdAt,value
2019-03-30T00:00:33.599Z,10.17
2019-03-30T00:03:05.633Z,10.03
2019-03-30T00:05:38.372Z,9.80
2019-03-30T00:08:10.318Z,9.43
2019-03-30T00:10:42.994Z,10.37
2019-03-30T00:13:15.339Z,10.30
2019-03-30T00:15:47.194Z,10.77
2019-03-30T00:18:19.771Z,10.70
2019-03-30T00:20:51.865Z,10.90
2019-03-30T00:23:23.655Z,11.03
2019-03-30T00:25:54.968Z,10.33
2019-03-30T00:28:27.238Z,9.77
2019-03-30T00:30:59.062Z,10.00
2019-03-30T00:33:31.538Z,9.60
2019-03-30T00:36:03.146Z,9.03
2019-03-30T00:38:35.244Z,9.90
2019-03-30T00:41:07.089Z,9.13
2019-03-30T00:43:39.206Z,8.90
2019-03-30T00:46:11.914Z,9.17
2019-03-30T00:48:44.101Z,9.73
2019-03-30T00:51:16.131Z,9.07
2019-03-30T00:53:47.883Z,9.47
2019-03-30T00:56:19.985Z,9.60
2019-03-30T00:58:52.682Z,10.10
2019-03-30T01:01:25.389Z,9.40
2019-03-30T01:03:57.149Z,9.57
2019-03-30T01:06:29.175Z,10.60
2019-03-30T01:09:01.777Z,9.97
2019-03-30T01:11:34.313Z,9.43
2019-03-30T01:14:06.647Z,8.93
2019-03-30T01:16:38.936Z,9.37
2019-03-30T01:19:11.610Z,9.30
2019-03-30T01:21:44.095Z,10.07
2019-03-30T01:24:16.188Z,9.33
2019-03-30T01:26:48.211Z,9.70
2019-03-30T01:29:20.794Z,8.27
2019-03-30T01:31:53.192Z,8.73
2019-03-30T01:34:25.315Z,9.20
2019-03-30T01:36:57.721Z,11.03
2019-03-30T01:39:30.070Z,9.60
2019-03-30T01:42:01.714Z,8.37
2019-03-30T01:44:34.213Z,9.03
2019-03-30T01:47:06.167Z,9.50
2019-03-30T01:49:38.252Z,9.57
2019-03-30T01:52:09.794Z,10.33
2019-03-30T01:54:42.023Z,10.10
2019-03-30T01:57:14.082Z,10.40
2019-03-30T01:59:45.335Z,10.63
2019-03-30T02:02:17.659Z,10.17
2019-03-30T02:04:49.687Z,11.07
2019-03-30T02:07:21.784Z,11.10
2019-03-30T02:09:53.510Z,11.67
2019-03-30T02:12:25.785Z,10.40
2019-03-30T02:14:57.877Z,11.77
2019-03-30T02:17:30.449Z,10.83
2019-03-30T02:20:03.040Z,11.07
2019-03-30T02:22:34.857Z,11.87
2019-03-30T02:25:05.972Z,11.40
2019-03-30T02:27:38.202Z,11.30
2019-03-30T02:30:10.786Z,10.63
2019-03-30T02:32:42.700Z,11.10
2019-03-30T02:35:15.194Z,12.57
2019-03-30T02:37:47.278Z,12.50
2019-03-30T02:40:21.127Z,11.13
2019-03-30T02:42:53.817Z,12.87
2019-03-30T02:45:25.733Z,12.53
2019-03-30T02:47:58.146Z,12.57
2019-03-30T02:50:47.437Z,12.33
2019-03-30T02:53:04.038Z,13.57
2019-03-30T02:55:36.120Z,12.97
2019-03-30T02:58:08.803Z,13.97
2019-03-30T03:00:41.027Z,15.10
2019-03-30T03:03:13.712Z,15.97
2019-03-30T03:05:45.669Z,17.30
2019-03-30T03:08:19.257Z,16.33
2019-03-30T03:10:51.326Z,15.93
2019-03-30T03:13:23.464Z,16.40
2019-03-30T03:15:55.946Z,21.47
2019-03-30T03:18:27.874Z,33.47
2019-03-30T03:21:08.002Z,37.77
2019-03-30T03:23:33.514Z,44.30
2019-03-30T03:26:05.564Z,49.30
2019-03-30T03:28:37.858Z,49.07
2019-03-30T03:31:09.839Z,55.07
2019-03-30T03:33:41.955Z,45.73
2019-03-30T03:36:13.314Z,51.40
2019-03-30T03:38:45.548Z,41.73
2019-03-30T03:41:17.646Z,34.33
2019-03-30T03:43:50.073Z,28.63
2019-03-30T03:46:22.599Z,26.40
2019-03-30T03:48:54.855Z,18.83
2019-03-30T03:51:28.414Z,16.87
2019-03-30T03:54:00.845Z,16.43
2019-03-30T03:56:35.242Z,14.97
2019-03-30T03:59:08.672Z,14.00
2019-03-30T04:01:40.944Z,12.60
2019-03-30T04:04:15.183Z,13.13
2019-03-30T04:06:48.789Z,12.50
2019-03-30T04:09:23.957Z,11.87
2019-03-30T04:11:56.165Z,11.80
2019-03-30T04:14:28.834Z,14.47
2019-03-30T04:17:01.158Z,13.90
2019-03-30T04:19:33.321Z,14.43
2019-03-30T04:22:05.595Z,13.47
2019-03-30T04:24:37.878Z,12.97
2019-03-30T04:27:10.681Z,15.47
2019-03-30T04:29:43.676Z,16.67
2019-03-30T04:32:15.650Z,14.77
2019-03-30T04:34:48.373Z,18.73
2019-03-30T04:37:20.498Z,16.00
2019-03-30T04:39:52.531Z,16.07
2019-03-30T04:42:24.562Z,15.83
2019-03-30T04:44:57.003Z,20.33
2019-03-30T04:47:29.308Z,17.53
2019-03-30T04:50:01.227Z,16.43
2019-03-30T04:52:34.930Z,16.03
2019-03-30T04:55:07.136Z,18.37
2019-03-30T04:57:39.387Z,18.77
2019-03-30T05:00:11.564Z,17.00
2019-03-30T05:02:43.865Z,19.93
2019-03-30T05:05:15.913Z,18.80
2019-03-30T05:07:48.011Z,20.57
2019-03-30T05:10:19.814Z,18.43
2019-03-30T05:12:52.058Z,18.30
2019-03-30T05:15:24.516Z,19.93
2019-03-30T05:17:55.642Z,20.23
2019-03-30T05:20:27.495Z,18.43
2019-03-30T05:22:58.770Z,19.47
2019-03-30T05:25:29.892Z,16.83
2019-03-30T05:28:01.133Z,16.10
2019-03-30T05:30:32.675Z,15.70
2019-03-30T05:33:05.826Z,17.93
2019-03-30T05:35:37.940Z,17.67
2019-03-30T05:38:09.932Z,21.23
2019-03-30T05:40:41.314Z,16.10
2019-03-30T05:43:12.512Z,17.97
2019-03-30T05:45:43.601Z,18.83
2019-03-30T05:48:15.383Z,20.55
2019-03-30T05:50:47.059Z,17.63
2019-03-30T05:53:18.331Z,18.23
2019-03-30T05:55:50.106Z,19.43
2019-03-30T05:58:21.237Z,18.73
2019-03-30T06:00:52.712Z,17.50
2019-03-30T06:03:24.268Z,18.87
2019-03-30T06:05:56.080Z,23.15
2019-03-30T06:08:28.039Z,22.50
2019-03-30T06:10:59.403Z,18.13
2019-03-30T06:13:31.368Z,19.53
2019-03-30T06:16:02.882Z,16.73
2019-03-30T06:18:34.500Z,16.17
2019-03-30T06:21:06.010Z,18.43
2019-03-30T06:23:38.261Z,19.20
2019-03-30T06:26:09.762Z,18.07
2019-03-30T06:28:41.998Z,17.03
2019-03-30T06:31:14.179Z,16.50
2019-03-30T06:33:45.476Z,18.30
2019-03-30T06:36:17.801Z,19.70
2019-03-30T06:38:49.146Z,19.33
2019-03-30T06:41:21.103Z,19.13
2019-03-30T06:43:53.138Z,22.42
2019-03-30T06:46:25.024Z,20.73
2019-03-30T06:48:56.373Z,19.83
2019-03-30T06:51:28.452Z,20.43
2019-03-30T06:54:00.231Z,17.07
2019-03-30T06:56:31.783Z,19.57
2019-03-30T06:59:03.365Z,18.67
2019-03-30T07:01:35.709Z,20.60
2019-03-30T07:04:07.101Z,18.87
2019-03-30T07:06:40.527Z,18.73
2019-03-30T07:09:11.720Z,19.50
2019-03-30T07:11:48.753Z,19.20
2019-03-30T07:14:21.851Z,18.17
2019-03-30T07:16:56.610Z,17.83
2019-03-30T07:19:30.983Z,17.90
2019-03-30T07:22:02.955Z,18.13
2019-03-30T07:24:34.759Z,18.33
2019-03-30T07:27:06.174Z,18.00
2019-03-30T07:29:38.236Z,19.67
2019-03-30T07:32:10.343Z,18.77
2019-03-30T07:34:42.379Z,17.40
2019-03-30T07:37:14.903Z,18.77
2019-03-30T07:39:47.234Z,20.33
2019-03-30T07:42:18.786Z,19.97
2019-03-30T07:44:50.713Z,18.17
2019-03-30T07:47:22.041Z,17.83
2019-03-30T07:49:53.460Z,23.40
2019-03-30T07:52:25.142Z,17.37
2019-03-30T07:54:56.985Z,16.80
2019-03-30T07:57:28.649Z,17.27
2019-03-30T08:00:00.044Z,17.00
2019-03-30T08:02:32.565Z,14.83
2019-03-30T08:05:05.269Z,24.67
2019-03-30T08:07:37.079Z,18.87
2019-03-30T08:10:09.107Z,23.83
2019-03-30T08:12:41.335Z,30.23
2019-03-30T08:15:13.525Z,28.00
2019-03-30T08:17:45.539Z,29.93
2019-03-30T08:20:18.018Z,26.37
2019-03-30T08:22:49.955Z,25.80
2019-03-30T08:25:22.089Z,25.00
2019-03-30T08:27:54.139Z,25.40
2019-03-30T08:30:26.486Z,27.20
2019-03-30T08:32:58.256Z,25.43
2019-03-30T08:35:30.995Z,21.20
2019-03-30T08:38:03.261Z,21.10
2019-03-30T08:40:36.806Z,21.10
2019-03-30T08:43:08.808Z,22.03
2019-03-30T08:45:40.627Z,18.03
2019-03-30T08:48:12.375Z,19.47
2019-03-30T08:50:44.680Z,17.70
2019-03-30T08:53:16.424Z,22.60
2019-03-30T08:55:48.046Z,20.77
2019-03-30T08:58:20.045Z,19.53
2019-03-30T09:00:52.149Z,17.83
2019-03-30T09:03:23.584Z,19.87
2019-03-30T09:05:57.076Z,21.93
2019-03-30T09:08:28.881Z,22.03
2019-03-30T09:11:00.807Z,20.77
2019-03-30T09:13:32.727Z,21.07
2019-03-30T09:16:05.053Z,21.47
2019-03-30T09:18:37.021Z,20.03
2019-03-30T09:21:09.447Z,18.43
2019-03-30T09:23:41.273Z,20.60
2019-03-30T09:26:16.498Z,16.37
2019-03-30T09:28:47.431Z,15.43
2019-03-30T09:31:19.460Z,14.00
2019-03-30T09:33:51.387Z,14.63
2019-03-30T09:36:23.251Z,16.43
2019-03-30T09:38:55.456Z,16.17
2019-03-30T09:41:27.160Z,15.47
2019-03-30T09:43:59.168Z,16.73
2019-03-30T09:46:32.011Z,15.33
2019-03-30T09:49:03.904Z,15.68
2019-03-30T09:51:36.056Z,14.50
2019-03-30T09:54:08.016Z,14.93
2019-03-30T09:56:40.173Z,15.33
2019-03-30T09:59:11.696Z,15.20
2019-03-30T10:01:43.535Z,13.50
2019-03-30T10:04:15.591Z,15.18
2019-03-30T10:06:46.736Z,13.17
2019-03-30T10:09:18.175Z,13.87
2019-03-30T10:11:51.037Z,12.50
2019-03-30T10:14:22.205Z,12.07
2019-03-30T10:17:12.039Z,12.40
2019-03-30T10:19:48.124Z,12.17
2019-03-30T10:22:17.724Z,12.00
2019-03-30T10:24:52.595Z,13.63
2019-03-30T10:27:24.461Z,12.30
2019-03-30T10:29:55.734Z,13.37
2019-03-30T10:32:32.111Z,14.00
2019-03-30T10:35:05.067Z,12.50
2019-03-30T10:37:36.948Z,11.87
2019-03-30T10:40:09.344Z,11.67
2019-03-30T10:42:44.177Z,12.07
2019-03-30T10:45:16.015Z,11.47
2019-03-30T10:47:47.657Z,11.30
2019-03-30T10:50:19.536Z,11.57
2019-03-30T10:52:50.787Z,10.93
2019-03-30T10:55:22.067Z,12.80
2019-03-30T10:57:53.243Z,14.23
2019-03-30T11:00:41.808Z,15.07
2019-03-30T11:03:13.659Z,14.17
2019-03-30T11:05:45.521Z,11.30
2019-03-30T11:08:37.173Z,11.03
2019-03-30T11:11:09.189Z,11.53
2019-03-30T11:13:41.426Z,12.50
2019-03-30T11:16:12.811Z,15.90
2019-03-30T11:18:44.203Z,12.87
2019-03-30T11:21:16.115Z,11.90
2019-03-30T11:23:47.916Z,11.87
2019-03-30T11:26:19.693Z,11.93
2019-03-30T11:28:51.599Z,12.70
2019-03-30T11:31:23.890Z,12.40
2019-03-30T11:33:55.279Z,11.23
2019-03-30T11:36:27.282Z,11.50
2019-03-30T11:38:58.448Z,12.50
2019-03-30T11:41:30.138Z,12.83
2019-03-30T11:44:02.013Z,11.63
2019-03-30T11:46:33.500Z,11.60
2019-03-30T11:49:04.856Z,12.47
2019-03-30T11:51:36.184Z,11.60
2019-03-30T11:54:08.102Z,11.37
2019-03-30T11:56:58.054Z,12.10
2019-03-30T11:59:29.198Z,11.57
2019-03-30T12:02:01.256Z,11.13
2019-03-30T12:04:32.945Z,10.60
2019-03-30T12:07:04.856Z,19.10
2019-03-30T12:09:36.841Z,11.47
2019-03-30T12:12:08.732Z,11.97
2019-03-30T12:14:40.269Z,11.00
2019-03-30T12:17:11.836Z,11.93
2019-03-30T12:19:45.891Z,10.97
2019-03-30T12:26:35.574Z,18.73
2019-03-30T12:29:07.293Z,10.80
2019-03-30T12:31:38.793Z,11.10
2019-03-30T12:34:13.117Z,12.40
2019-03-30T12:36:44.362Z,12.30
2019-03-30T12:39:16.714Z,10.67
2019-03-30T12:41:49.265Z,9.77
2019-03-30T12:44:20.971Z,10.50
2019-03-30T12:46:52.966Z,10.07
2019-03-30T12:49:24.438Z,9.77
2019-03-30T12:51:55.609Z,10.67
2019-03-30T12:54:27.281Z,10.87
2019-03-30T12:56:59.428Z,13.15
2019-03-30T12:59:31.629Z,10.93
2019-03-30T13:02:03.049Z,10.67
2019-03-30T13:04:35.554Z,11.23
2019-03-30T13:07:06.971Z,10.60
2019-03-30T13:09:38.776Z,10.13
2019-03-30T13:12:10.247Z,10.17
2019-03-30T13:14:42.578Z,10.87
2019-03-30T13:17:14.400Z,10.57
2019-03-30T13:19:46.507Z,12.50
2019-03-30T13:22:18.647Z,11.15
2019-03-30T13:24:50.532Z,12.27
2019-03-30T13:27:22.344Z,10.83
2019-03-30T13:29:54.446Z,10.07
2019-03-30T13:32:26.116Z,11.33
2019-03-30T13:34:57.908Z,10.03
2019-03-30T13:37:30.049Z,11.17
2019-03-30T13:40:02.111Z,10.53
2019-03-30T13:42:33.708Z,11.37
2019-03-30T13:45:06.179Z,9.80
2019-03-30T13:47:38.175Z,9.97
2019-03-30T13:50:10.827Z,9.67
2019-03-30T13:52:42.434Z,10.60
2019-03-30T13:55:14.679Z,9.83
2019-03-30T13:57:45.974Z,9.93
2019-03-30T14:00:17.421Z,9.90
2019-03-30T14:02:50.242Z,10.37
2019-03-30T14:05:22.178Z,9.90
2019-03-30T14:07:53.997Z,10.37
2019-03-30T14:10:26.736Z,9.80
2019-03-30T14:12:58.884Z,10.47
2019-03-30T14:15:30.855Z,10.80
2019-03-30T14:18:02.877Z,11.38
2019-03-30T14:20:35.054Z,12.57
2019-03-30T14:23:06.827Z,10.40
2019-03-30T14:25:39.020Z,10.63
2019-03-30T14:28:10.686Z,10.97
2019-03-30T14:30:43.142Z,10.83
2019-03-30T14:33:14.853Z,11.77
2019-03-30T14:35:46.835Z,10.33
2019-03-30T14:38:18.890Z,10.70
2019-03-30T14:40:50.680Z,11.43
2019-03-30T14:43:22.881Z,11.17
2019-03-30T14:45:54.580Z,11.87
2019-03-30T14:48:26.776Z,10.63
2019-03-30T14:50:58.966Z,11.13
2019-03-30T14:53:30.888Z,10.80
2019-03-30T14:56:03.563Z,10.93
2019-03-30T14:58:35.224Z,10.33
2019-03-30T15:01:06.763Z,12.07
2019-03-30T15:03:38.402Z,11.13
2019-03-30T15:06:10.518Z,12.23
2019-03-30T15:08:41.975Z,10.40
2019-03-30T15:11:14.069Z,11.03
2019-03-30T15:13:45.958Z,10.80
2019-03-30T15:16:17.652Z,10.13
2019-03-30T15:18:48.968Z,10.50
2019-03-30T15:21:20.133Z,11.33
2019-03-30T15:23:51.756Z,10.70
2019-03-30T15:26:23.534Z,11.23
2019-03-30T15:28:55.829Z,10.67
2019-03-30T15:31:28.033Z,10.43
2019-03-30T15:33:59.540Z,11.57
2019-03-30T15:36:31.314Z,11.53
2019-03-30T15:39:03.008Z,12.30
2019-03-30T15:41:34.966Z,12.47
2019-03-30T15:44:07.001Z,12.23
2019-03-30T15:46:39.143Z,11.70
2019-03-30T15:49:11.111Z,12.88
2019-03-30T15:51:42.886Z,11.87
2019-03-30T15:54:14.798Z,12.27
2019-03-30T15:56:46.221Z,14.23
2019-03-30T15:59:18.540Z,12.77
2019-03-30T16:01:50.044Z,13.60
2019-03-30T16:04:23.189Z,14.40
2019-03-30T16:06:55.024Z,15.75
2019-03-30T16:09:26.567Z,16.60
2019-03-30T16:11:59.238Z,15.53
2019-03-30T16:14:31.198Z,13.63
2019-03-30T16:17:02.818Z,13.80
2019-03-30T16:19:34.326Z,12.57
2019-03-30T16:22:06.681Z,14.07
2019-03-30T16:24:38.212Z,15.85
2019-03-30T16:27:10.012Z,16.33
2019-03-30T16:29:41.998Z,13.93
2019-03-30T16:32:13.287Z,22.80
2019-03-30T16:34:44.517Z,15.70
2019-03-30T16:37:16.033Z,14.53
2019-03-30T16:39:47.473Z,15.00
2019-03-30T16:42:18.740Z,14.47
2019-03-30T16:44:50.262Z,15.50
2019-03-30T16:47:21.903Z,15.83
2019-03-30T16:49:53.526Z,15.27
2019-03-30T16:52:24.713Z,15.17
2019-03-30T16:54:55.912Z,14.33
2019-03-30T16:57:36.814Z,15.40
2019-03-30T17:00:00.543Z,15.00
2019-03-30T17:02:32.278Z,17.83
2019-03-30T17:05:04.321Z,16.40
2019-03-30T17:07:35.605Z,12.77
2019-03-30T17:10:08.462Z,12.90
2019-03-30T17:12:40.529Z,16.50
2019-03-30T17:15:12.086Z,18.30
2019-03-30T17:17:43.202Z,14.67
2019-03-30T17:20:15.052Z,13.83
2019-03-30T17:22:46.721Z,14.20
2019-03-30T17:25:17.906Z,16.60
2019-03-30T17:27:58.161Z,19.80
2019-03-30T17:30:22.098Z,22.37
2019-03-30T17:32:53.514Z,16.27
2019-03-30T17:35:24.737Z,22.10
2019-03-30T17:37:55.987Z,19.83
2019-03-30T17:40:27.694Z,26.23
2019-03-30T17:42:59.149Z,24.63
2019-03-30T17:45:30.691Z,24.30
2019-03-30T17:48:02.093Z,25.00
2019-03-30T17:50:33.254Z,25.93
2019-03-30T17:53:04.919Z,25.00
2019-03-30T17:55:36.189Z,28.33
2019-03-30T17:58:13.426Z,29.43
2019-03-30T18:00:40.222Z,24.03
2019-03-30T18:03:11.942Z,28.07
2019-03-30T18:05:44.582Z,23.90
2019-03-30T18:08:16.575Z,28.47
2019-03-30T18:10:48.008Z,23.90
2019-03-30T18:13:19.356Z,24.07
2019-03-30T18:15:51.020Z,20.57
2019-03-30T18:18:22.094Z,22.20
2019-03-30T18:20:55.315Z,21.67
2019-03-30T18:23:28.205Z,21.73
2019-03-30T18:26:00.054Z,21.53
2019-03-30T18:28:31.821Z,19.70
2019-03-30T18:31:03.070Z,20.63
2019-03-30T18:33:34.379Z,21.33
2019-03-30T18:36:06.403Z,19.47
2019-03-30T18:38:39.966Z,19.73
2019-03-30T18:41:11.264Z,19.17
2019-03-30T18:43:43.282Z,18.83
2019-03-30T18:46:15.193Z,18.23
2019-03-30T18:48:46.567Z,18.80
2019-03-30T18:51:17.696Z,17.97
2019-03-30T18:53:49.620Z,18.37
2019-03-30T18:56:21.090Z,18.33
2019-03-30T18:58:52.827Z,17.87
2019-03-30T19:01:24.074Z,17.97
2019-03-30T19:03:55.183Z,19.10
2019-03-30T19:06:26.488Z,18.40
2019-03-30T19:08:57.720Z,17.87
2019-03-30T19:11:29.440Z,17.47
2019-03-30T19:14:01.442Z,16.80
2019-03-30T19:16:32.696Z,18.50
2019-03-30T19:19:03.874Z,18.03
2019-03-30T19:21:35.709Z,18.10
2019-03-30T19:24:07.347Z,19.10
2019-03-30T19:26:38.824Z,19.57
2019-03-30T19:29:10.053Z,18.67
2019-03-30T19:31:41.168Z,19.57
2019-03-30T19:34:12.827Z,20.07
2019-03-30T19:36:44.547Z,19.03
2019-03-30T19:39:15.844Z,20.17
2019-03-30T19:41:48.031Z,20.27
2019-03-30T19:44:20.012Z,20.07
2019-03-30T19:46:51.746Z,19.53
2019-03-30T19:49:23.282Z,19.57
2019-03-30T19:51:54.736Z,20.03
2019-03-30T19:54:26.926Z,20.03
2019-03-30T19:56:58.113Z,19.83
2019-03-30T19:59:29.913Z,20.47
2019-03-30T20:02:01.658Z,21.10
2019-03-30T20:04:32.897Z,25.07
2019-03-30T20:07:04.462Z,27.77
2019-03-30T20:09:36.196Z,27.70
2019-03-30T20:12:08.315Z,27.23
2019-03-30T20:14:40.053Z,25.47
2019-03-30T20:17:13.506Z,22.17
2019-03-30T20:19:49.538Z,23.73
2019-03-30T20:22:21.652Z,23.70
2019-03-30T20:24:54.634Z,23.30
2019-03-30T20:27:30.454Z,21.30
2019-03-30T20:30:03.749Z,23.00
2019-03-30T20:32:37.805Z,21.77
2019-03-30T20:35:15.879Z,25.57
2019-03-30T20:37:49.676Z,24.70
2019-03-30T20:40:28.842Z,26.67
2019-03-30T20:43:00.256Z,26.10
2019-03-30T20:45:32.074Z,24.17
2019-03-30T20:48:08.368Z,23.50
2019-03-30T20:50:39.922Z,24.60
2019-03-30T20:53:13.478Z,25.07
2019-03-30T20:55:45.294Z,25.03
2019-03-30T20:58:17.275Z,23.87
2019-03-30T21:00:48.775Z,24.10
2019-03-30T21:03:20.524Z,23.70
2019-03-30T21:05:51.921Z,23.40
2019-03-30T21:08:23.858Z,25.37
2019-03-30T21:10:55.849Z,23.60
2019-03-30T21:13:28.297Z,22.87
2019-03-30T21:16:00.127Z,25.63
2019-03-30T21:18:31.470Z,26.47
2019-03-30T21:21:02.979Z,25.87
2019-03-30T21:23:34.444Z,26.33
2019-03-30T21:26:06.418Z,24.17
2019-03-30T21:28:38.141Z,24.33
2019-03-30T21:31:10.156Z,24.90
2019-03-30T21:33:42.538Z,23.63
2019-03-30T21:36:14.231Z,25.27
2019-03-30T21:38:46.075Z,25.23
2019-03-30T21:41:18.025Z,25.57
2019-03-30T21:43:49.960Z,22.73
2019-03-30T21:46:21.870Z,24.23
2019-03-30T21:48:53.669Z,24.30
2019-03-30T21:51:25.552Z,23.53
2019-03-30T21:53:56.847Z,24.00
2019-03-30T21:56:28.391Z,24.00
2019-03-30T21:58:59.658Z,24.23
2019-03-30T22:01:30.955Z,24.57
2019-03-30T22:04:02.327Z,23.13
2019-03-30T22:06:34.171Z,22.73
2019-03-30T22:09:07.314Z,23.23
2019-03-30T22:11:38.549Z,23.10
2019-03-30T22:14:10.071Z,22.30
2019-03-30T22:16:42.847Z,23.60
2019-03-30T22:19:14.954Z,22.57
2019-03-30T22:21:46.315Z,22.23
2019-03-30T22:24:18.711Z,22.10
2019-03-30T22:26:50.982Z,23.47
2019-03-30T22:29:22.875Z,24.37
2019-03-30T22:31:55.683Z,24.83
2019-03-30T22:34:27.756Z,25.83
2019-03-30T22:36:59.264Z,25.20
2019-03-30T22:39:31.238Z,25.37
2019-03-30T22:42:04.067Z,26.33
2019-03-30T22:44:35.818Z,25.13
2019-03-30T22:47:08.300Z,25.03
2019-03-30T22:49:40.702Z,25.10
2019-03-30T22:52:12.838Z,25.13
2019-03-30T22:54:45.353Z,26.23
2019-03-30T22:57:18.212Z,26.47
2019-03-30T22:59:49.447Z,26.07
2019-03-30T23:02:21.466Z,26.33
2019-03-30T23:04:54.026Z,26.60
2019-03-30T23:07:25.911Z,28.57
2019-03-30T23:09:58.416Z,27.53
2019-03-30T23:12:30.870Z,31.07
2019-03-30T23:15:02.595Z,32.67
2019-03-30T23:17:36.017Z,32.70
2019-03-30T23:20:08.286Z,30.97
2019-03-30T23:22:40.419Z,30.67
2019-03-30T23:25:11.819Z,29.47
2019-03-30T23:27:43.907Z,28.87
2019-03-30T23:30:16.197Z,26.10
2019-03-30T23:32:48.022Z,24.20
2019-03-30T23:35:20.497Z,24.67
2019-03-30T23:37:52.348Z,23.40
2019-03-30T23:40:24.262Z,21.77
2019-03-30T23:42:56.222Z,22.50
2019-03-30T23:45:29.037Z,22.53
2019-03-30T23:48:01.536Z,23.43
2019-03-30T23:50:33.627Z,24.60
2019-03-30T23:53:07.427Z,24.57
2019-03-30T23:55:39.667Z,25.47
2019-03-30T23:58:11.180Z,25.83
